Orbital elements of COSMOS 2251
| Launched | 15 June 1993 |
| Flight ended | – |
| Launch site | Plesetsk Missile and Space Complex, Russia |
| Owner | Commonwealth of Independent States (former USSR) |
| NORAD ID | 22675 |
| Date fetched |
Epoch osculation |
Inc. [°] |
Ecc. | RA asc node [hr] |
Arg Peri. [°] |
Mean anom [°] |
Mean motion [rev/day] |
Abs. mag |
| Date fetched |
Epoch osculation |
Inc. [°] |
Ecc. | RA asc node [hr] |
Arg Peri. [°] |
Mean anom [°] |
Mean motion [rev/day] |
Abs. mag |
| 2026 May 08 17:57 | 2026 May 05 12:49:12 | 74.0407 | 0.00237 | 3.5431 | 103.5946 | 256.7847 | 14.33248 | 6.243 |
| 2026 May 07 17:58 | 2026 May 05 12:49:12 | 74.0407 | 0.00237 | 3.5431 | 103.5946 | 256.7847 | 14.33248 | 6.243 |
| 2026 May 06 17:57 | 2026 May 05 12:49:12 | 74.0407 | 0.00237 | 3.5431 | 103.5946 | 256.7847 | 14.33248 | 6.243 |
| 2026 May 05 17:57 | 2026 May 05 12:49:12 | 74.0407 | 0.00237 | 3.5431 | 103.5946 | 256.7847 | 14.33248 | 6.243 |
| 2026 May 04 17:57 | 2026 Apr 30 07:10:50 | 74.0399 | 0.00237 | 4.1808 | 114.9554 | 256.7847 | 14.33248 | 6.243 |
| 2026 May 03 17:57 | 2026 Apr 30 07:10:50 | 74.0399 | 0.00237 | 4.1808 | 114.9554 | 256.7847 | 14.33248 | 6.243 |
| 2026 May 02 17:57 | 2026 Apr 30 07:10:50 | 74.0399 | 0.00237 | 4.1808 | 114.9554 | 256.7847 | 14.33248 | 6.243 |
| 2026 May 01 17:56 | 2026 Apr 30 07:10:50 | 74.0399 | 0.00237 | 4.1808 | 114.9554 | 256.7847 | 14.33248 | 6.243 |
| 2026 Apr 30 17:56 | 2026 Apr 30 07:10:50 | 74.0399 | 0.00237 | 4.1808 | 114.9554 | 256.7847 | 14.33248 | 6.243 |
| 2026 Apr 29 17:57 | 2026 Apr 24 07:06:50 | 74.0387 | 0.00239 | 4.9120 | 127.9294 | 256.7847 | 14.33248 | 6.243 |
| 2026 Apr 28 17:56 | 2026 Apr 24 07:06:50 | 74.0387 | 0.00239 | 4.9120 | 127.9294 | 256.7847 | 14.33248 | 6.243 |
| 2026 Apr 27 17:58 | 2026 Apr 24 07:06:50 | 74.0387 | 0.00239 | 4.9120 | 127.9294 | 256.7847 | 14.33248 | 6.243 |
| 2026 Apr 26 17:58 | 2026 Apr 24 07:06:50 | 74.0387 | 0.00239 | 4.9120 | 127.9294 | 256.7847 | 14.33248 | 6.243 |
| 2026 Apr 25 17:58 | 2026 Apr 24 07:06:50 | 74.0387 | 0.00239 | 4.9120 | 127.9294 | 256.7847 | 14.33248 | 6.243 |
| 2026 Apr 24 17:59 | 2026 Apr 24 07:06:50 | 74.0387 | 0.00239 | 4.9120 | 127.9294 | 256.7847 | 14.33248 | 6.243 |
| 2026 Apr 23 17:57 | 2026 Apr 19 08:10:29 | 74.0379 | 0.00240 | 5.5157 | 138.5471 | 256.7847 | 14.33248 | 6.243 |
| 2026 Apr 22 17:57 | 2026 Apr 19 08:10:29 | 74.0379 | 0.00240 | 5.5157 | 138.5471 | 256.7847 | 14.33248 | 6.243 |
| 2026 Apr 21 17:57 | 2026 Apr 19 08:10:29 | 74.0379 | 0.00240 | 5.5157 | 138.5471 | 256.7847 | 14.33248 | 6.243 |
| 2026 Apr 20 17:57 | 2026 Apr 19 08:10:29 | 74.0379 | 0.00240 | 5.5157 | 138.5471 | 256.7847 | 14.33248 | 6.243 |
| 2026 Apr 19 17:58 | 2026 Apr 19 08:10:29 | 74.0379 | 0.00240 | 5.5157 | 138.5471 | 256.7847 | 14.33248 | 6.243 |
| 2026 Apr 18 17:56 | 2026 Apr 13 06:25:57 | 74.0371 | 0.00242 | 6.2555 | 151.5002 | 256.7847 | 14.33248 | 6.243 |
| 2026 Apr 16 17:57 | 2026 Apr 13 06:25:57 | 74.0371 | 0.00242 | 6.2555 | 151.5002 | 256.7847 | 14.33248 | 6.243 |
| 2026 Apr 14 17:57 | 2026 Apr 13 06:25:57 | 74.0371 | 0.00242 | 6.2555 | 151.5002 | 256.7847 | 14.33248 | 6.243 |
| 2026 Apr 13 17:57 | 2026 Apr 13 06:25:57 | 74.0371 | 0.00242 | 6.2555 | 151.5002 | 256.7847 | 14.33248 | 6.243 |
| 2026 Apr 12 17:57 | 2026 Apr 08 10:50:38 | 74.0369 | 0.00244 | 6.8423 | 161.7001 | 256.7847 | 14.33248 | 6.243 |
| 2026 Apr 11 17:57 | 2026 Apr 08 10:50:38 | 74.0369 | 0.00244 | 6.8423 | 161.7001 | 256.7847 | 14.33248 | 6.243 |